createdAt,value
2022-10-30T00:00:40.991Z,8.15
2022-10-30T00:03:12.333Z,8.10
2022-10-30T00:05:48.042Z,8.10
2022-10-30T00:08:17.176Z,8.13
2022-10-30T00:10:45.128Z,8.13
2022-10-30T00:13:13.612Z,8.18
2022-10-30T00:15:40.708Z,8.19
2022-10-30T00:18:07.514Z,8.09
2022-10-30T00:20:37.078Z,8.08
2022-10-30T00:23:03.959Z,8.06
2022-10-30T00:25:30.830Z,8.02
2022-10-30T00:27:57.645Z,7.98
2022-10-30T00:30:24.439Z,7.89
2022-10-30T00:32:51.288Z,7.87
2022-10-30T00:35:18.102Z,7.86
2022-10-30T00:37:44.879Z,7.85
2022-10-30T00:40:16.410Z,7.79
2022-10-30T00:42:43.332Z,7.74
2022-10-30T00:45:15.309Z,7.66
2022-10-30T00:47:55.766Z,7.62
2022-10-30T00:50:30.837Z,7.52
2022-10-30T00:53:03.912Z,7.42
2022-10-30T00:55:37.984Z,7.42
2022-10-30T00:58:09.550Z,7.40
2022-10-30T01:00:39.170Z,7.36
2022-10-30T01:03:06.549Z,7.32
2022-10-30T01:05:34.704Z,7.28
2022-10-30T01:08:01.725Z,7.23
2022-10-30T01:10:28.913Z,7.19
2022-10-30T01:12:58.727Z,7.08
2022-10-30T01:15:33.360Z,7.05
2022-10-30T01:18:38.243Z,7.04
2022-10-30T01:21:38.831Z,7.01
2022-10-30T01:24:20.518Z,7.03
2022-10-30T01:26:51.393Z,7.03
2022-10-30T01:29:36.620Z,6.98
2022-10-30T01:32:24.088Z,6.92
2022-10-30T01:35:22.798Z,6.92
2022-10-30T01:38:02.013Z,6.93
2022-10-30T01:40:29.143Z,6.94
2022-10-30T01:42:58.122Z,6.88
2022-10-30T01:45:28.813Z,6.96
2022-10-30T01:48:04.239Z,6.96
2022-10-30T01:50:39.278Z,6.95
2022-10-30T01:53:38.452Z,6.87
2022-10-30T01:56:16.093Z,6.84
2022-10-30T01:59:11.505Z,6.81
2022-10-30T02:01:40.141Z,6.73
2022-10-30T02:04:09.233Z,6.63
2022-10-30T02:06:37.893Z,6.65
2022-10-30T02:09:06.063Z,6.60
2022-10-30T02:11:36.285Z,6.65
2022-10-30T02:14:06.256Z,6.63
2022-10-30T02:16:38.102Z,6.50
2022-10-30T02:19:06.693Z,6.55
2022-10-30T02:21:33.764Z,6.44
2022-10-30T02:24:00.643Z,6.48
2022-10-30T02:26:27.514Z,6.44
2022-10-30T02:28:54.389Z,6.31
2022-10-30T02:31:21.157Z,6.31
2022-10-30T02:33:48.440Z,6.29
2022-10-30T02:36:17.965Z,6.31
2022-10-30T02:38:45.049Z,6.38
2022-10-30T02:41:12.608Z,6.37
2022-10-30T02:43:39.435Z,6.30
2022-10-30T02:46:06.296Z,6.34
2022-10-30T02:48:34.129Z,6.35
2022-10-30T02:51:02.109Z,6.37
2022-10-30T02:53:30.235Z,6.43
2022-10-30T02:56:03.551Z,6.48
2022-10-30T02:58:30.704Z,6.50
2022-10-30T03:00:57.661Z,6.50
2022-10-30T03:03:24.580Z,6.51
2022-10-30T03:05:51.561Z,6.43
2022-10-30T03:08:18.357Z,6.41
2022-10-30T03:10:45.236Z,6.37
2022-10-30T03:13:12.008Z,6.36
2022-10-30T03:15:38.858Z,6.36
2022-10-30T03:18:06.002Z,6.42
2022-10-30T03:20:36.620Z,6.44
2022-10-30T03:23:03.391Z,6.34
2022-10-30T03:25:30.226Z,6.32
2022-10-30T03:27:59.670Z,6.28
2022-10-30T03:30:27.507Z,6.32
2022-10-30T03:32:54.304Z,6.25
2022-10-30T03:35:21.198Z,6.20
2022-10-30T03:37:48.093Z,6.14
2022-10-30T03:40:14.925Z,6.13
2022-10-30T03:42:42.165Z,6.11
2022-10-30T03:45:09.558Z,6.13
2022-10-30T03:47:40.672Z,6.11
2022-10-30T03:50:09.256Z,6.16
2022-10-30T03:52:36.086Z,6.15
2022-10-30T03:55:02.899Z,6.19
2022-10-30T03:57:29.840Z,6.16
2022-10-30T04:00:11.871Z,6.12
2022-10-30T04:02:49.077Z,6.08
2022-10-30T04:05:21.663Z,6.06
2022-10-30T04:07:55.214Z,6.07
2022-10-30T04:10:23.918Z,6.00
2022-10-30T04:12:53.165Z,5.90
2022-10-30T04:15:20.025Z,5.89
2022-10-30T04:17:51.432Z,5.97
2022-10-30T04:20:20.027Z,5.98
2022-10-30T04:22:48.241Z,5.93
2022-10-30T04:25:19.713Z,5.92
2022-10-30T04:27:49.764Z,5.89
2022-10-30T04:30:20.235Z,5.85
2022-10-30T04:32:53.034Z,5.90
2022-10-30T04:35:21.745Z,5.93
2022-10-30T04:37:56.559Z,5.90
2022-10-30T04:40:25.720Z,5.86
2022-10-30T04:42:57.722Z,5.83
2022-10-30T04:45:25.500Z,5.79
2022-10-30T04:47:53.580Z,5.78
2022-10-30T04:50:20.493Z,5.75
2022-10-30T04:52:47.370Z,5.77
2022-10-30T04:55:14.206Z,5.78
2022-10-30T04:57:43.407Z,5.75
2022-10-30T05:00:11.771Z,5.78
2022-10-30T05:02:39.318Z,5.85
2022-10-30T05:05:06.506Z,5.83
2022-10-30T05:07:33.310Z,5.76
2022-10-30T05:10:00.120Z,5.77
2022-10-30T05:12:26.973Z,5.82
2022-10-30T05:14:55.860Z,5.95
2022-10-30T05:17:23.563Z,5.98
2022-10-30T05:19:51.208Z,6.09
2022-10-30T05:22:18.190Z,6.13
2022-10-30T05:24:45.020Z,6.07
2022-10-30T05:27:12.789Z,6.04
2022-10-30T05:29:40.251Z,5.99
2022-10-30T05:32:07.186Z,5.99
2022-10-30T05:34:39.740Z,5.94
2022-10-30T05:37:07.177Z,5.98
2022-10-30T05:39:35.055Z,6.03
2022-10-30T05:42:03.121Z,6.10
2022-10-30T05:44:59.920Z,6.15
2022-10-30T05:47:27.698Z,6.14
2022-10-30T05:49:56.683Z,6.20
2022-10-30T05:52:25.969Z,6.25
2022-10-30T05:54:52.813Z,6.32
2022-10-30T05:58:04.657Z,6.37
2022-10-30T06:00:35.362Z,6.47
2022-10-30T06:03:04.976Z,6.51
2022-10-30T06:05:35.134Z,6.58
2022-10-30T06:08:02.990Z,6.71
2022-10-30T06:10:30.419Z,6.80
2022-10-30T06:13:20.580Z,6.89
2022-10-30T06:16:00.326Z,7.00
2022-10-30T06:18:40.519Z,7.16
2022-10-30T06:21:10.926Z,7.26
2022-10-30T06:23:48.735Z,7.40
2022-10-30T06:26:34.225Z,7.56
2022-10-30T06:29:06.996Z,7.65
2022-10-30T06:31:33.853Z,7.78
2022-10-30T06:34:01.793Z,7.84
2022-10-30T06:36:29.827Z,7.99
2022-10-30T06:38:58.395Z,8.08
2022-10-30T06:41:30.627Z,8.16
2022-10-30T06:44:29.590Z,8.22
2022-10-30T06:46:56.437Z,8.24
2022-10-30T06:49:23.270Z,8.31
2022-10-30T06:51:57.279Z,8.41
2022-10-30T06:54:24.146Z,8.54
2022-10-30T06:57:00.729Z,8.56
2022-10-30T06:59:41.279Z,8.66
2022-10-30T07:02:28.561Z,8.69
2022-10-30T07:04:59.190Z,8.79
2022-10-30T07:07:26.750Z,8.88
2022-10-30T07:09:53.584Z,8.99
2022-10-30T07:12:27.167Z,9.08
2022-10-30T07:15:09.986Z,9.18
2022-10-30T07:18:04.127Z,9.24
2022-10-30T07:20:35.138Z,9.35
2022-10-30T07:23:02.547Z,9.47
2022-10-30T07:25:30.114Z,9.59
2022-10-30T07:28:06.314Z,9.70
2022-10-30T07:30:36.740Z,9.90
2022-10-30T07:33:16.299Z,10.23
2022-10-30T07:36:03.768Z,10.65
2022-10-30T07:38:52.185Z,11.10
2022-10-30T07:41:33.468Z,11.20
2022-10-30T07:44:20.548Z,11.24
2022-10-30T07:46:56.923Z,11.44
2022-10-30T07:49:50.063Z,11.90
2022-10-30T07:52:18.154Z,12.19
2022-10-30T07:54:47.822Z,12.58
2022-10-30T07:57:52.910Z,12.99
2022-10-30T08:00:55.038Z,13.07
2022-10-30T08:03:29.602Z,13.02
2022-10-30T08:06:11.469Z,13.12
2022-10-30T08:08:40.493Z,13.21
2022-10-30T08:11:28.802Z,13.35
2022-10-30T08:13:57.803Z,13.53
2022-10-30T08:16:24.708Z,13.50
2022-10-30T08:18:51.705Z,13.38
2022-10-30T08:21:21.919Z,13.49
2022-10-30T08:23:58.908Z,13.68
2022-10-30T08:26:28.389Z,13.70
2022-10-30T08:28:55.347Z,13.78
2022-10-30T08:31:24.332Z,13.83
2022-10-30T08:34:14.307Z,13.92
2022-10-30T08:36:52.180Z,14.20
2022-10-30T08:39:20.108Z,14.33
2022-10-30T08:41:59.432Z,14.44
2022-10-30T08:44:31.108Z,14.61
2022-10-30T08:47:16.619Z,14.90
2022-10-30T08:49:47.818Z,15.05
2022-10-30T08:52:17.872Z,15.41
2022-10-30T08:54:48.482Z,15.65
2022-10-30T08:57:15.791Z,15.78
2022-10-30T08:59:42.620Z,15.86
2022-10-30T09:02:21.051Z,15.93
2022-10-30T09:05:09.345Z,16.08
2022-10-30T09:08:02.243Z,16.24
2022-10-30T09:10:48.238Z,16.64
2022-10-30T09:13:15.781Z,16.84
2022-10-30T09:15:43.336Z,17.09
2022-10-30T09:18:10.776Z,17.20
2022-10-30T09:20:38.489Z,17.18
2022-10-30T09:23:05.389Z,17.07
2022-10-30T09:25:32.350Z,17.05
2022-10-30T09:28:17.698Z,17.04
2022-10-30T09:31:04.099Z,16.98
2022-10-30T09:33:35.017Z,17.15
2022-10-30T09:36:22.495Z,17.41
2022-10-30T09:38:51.726Z,17.59
2022-10-30T09:41:50.208Z,17.55
2022-10-30T09:44:25.746Z,17.90
2022-10-30T09:47:03.761Z,18.08
2022-10-30T09:49:49.642Z,18.32
2022-10-30T09:52:28.799Z,18.62
2022-10-30T09:55:00.443Z,18.84
2022-10-30T09:57:52.451Z,19.11
2022-10-30T10:00:27.925Z,19.45
2022-10-30T10:03:16.173Z,19.50
2022-10-30T10:06:04.918Z,19.58
2022-10-30T10:09:06.401Z,19.85
2022-10-30T10:12:10.335Z,19.82
2022-10-30T10:14:43.105Z,19.93
2022-10-30T10:17:14.480Z,20.04
2022-10-30T10:19:55.233Z,20.24
2022-10-30T10:22:26.962Z,20.44
2022-10-30T10:24:55.078Z,20.81
2022-10-30T10:27:30.652Z,21.01
2022-10-30T10:30:03.507Z,21.29
2022-10-30T10:33:02.544Z,21.47
2022-10-30T10:35:46.725Z,21.75
2022-10-30T10:38:28.769Z,21.57
2022-10-30T10:41:10.768Z,21.42
2022-10-30T10:44:00.771Z,21.56
2022-10-30T10:46:30.575Z,21.64
2022-10-30T10:49:18.227Z,21.99
2022-10-30T10:51:50.846Z,22.22
2022-10-30T10:54:39.267Z,22.49
2022-10-30T10:57:08.025Z,22.19
2022-10-30T10:59:44.034Z,22.38
2022-10-30T11:02:30.181Z,22.52
2022-10-30T11:05:05.217Z,22.66
2022-10-30T11:07:37.332Z,22.73
2022-10-30T11:10:13.530Z,23.00
2022-10-30T11:12:40.980Z,22.96
2022-10-30T11:15:44.782Z,23.11
2022-10-30T11:18:11.674Z,23.15
2022-10-30T11:20:44.345Z,23.28
2022-10-30T11:23:34.410Z,23.45
2022-10-30T11:26:05.799Z,23.44
2022-10-30T11:28:39.172Z,23.48
2022-10-30T11:31:43.398Z,23.65
2022-10-30T11:34:17.814Z,23.68
2022-10-30T11:36:44.945Z,23.83
2022-10-30T11:39:26.902Z,23.87
2022-10-30T11:42:17.913Z,24.00
2022-10-30T11:44:51.760Z,24.46
2022-10-30T11:47:23.128Z,24.33
2022-10-30T11:49:56.811Z,24.39
2022-10-30T11:52:26.979Z,24.35
2022-10-30T11:54:58.674Z,24.08
2022-10-30T11:57:47.871Z,23.98
2022-10-30T12:00:25.510Z,24.12
2022-10-30T12:02:54.886Z,24.30
2022-10-30T12:05:26.508Z,24.61
2022-10-30T12:08:17.693Z,24.72
2022-10-30T12:10:56.643Z,24.43
2022-10-30T12:13:25.674Z,24.47
2022-10-30T12:16:16.772Z,24.67
2022-10-30T12:18:56.837Z,24.94
2022-10-30T12:21:25.421Z,25.17
2022-10-30T12:23:59.774Z,25.33
2022-10-30T12:26:27.868Z,25.38
2022-10-30T12:28:59.422Z,25.32
2022-10-30T12:31:53.397Z,25.58
2022-10-30T12:34:39.149Z,25.47
2022-10-30T12:37:20.691Z,25.31
2022-10-30T12:40:22.308Z,25.15
2022-10-30T12:42:57.677Z,25.15
2022-10-30T12:45:53.404Z,25.24
2022-10-30T12:48:37.690Z,25.46
2022-10-30T12:51:24.143Z,25.49
2022-10-30T12:54:03.877Z,25.50
2022-10-30T12:56:38.614Z,25.62
2022-10-30T12:59:50.525Z,26.05
2022-10-30T13:02:38.836Z,26.34
2022-10-30T13:05:25.405Z,26.43
2022-10-30T13:08:02.809Z,26.65
2022-10-30T13:10:39.094Z,26.65
2022-10-30T13:13:16.936Z,26.33
2022-10-30T13:15:54.362Z,26.49
2022-10-30T13:18:23.465Z,26.41
2022-10-30T13:21:06.951Z,26.10
2022-10-30T13:23:51.738Z,25.91
2022-10-30T13:26:30.089Z,25.78
2022-10-30T13:29:03.013Z,25.61
2022-10-30T13:31:46.156Z,25.68
2022-10-30T13:34:40.459Z,25.98
2022-10-30T13:37:22.385Z,26.26
2022-10-30T13:40:05.757Z,26.17
2022-10-30T13:43:07.321Z,25.40
2022-10-30T13:45:51.090Z,24.95
2022-10-30T13:48:36.751Z,24.79
2022-10-30T13:51:18.814Z,24.73
2022-10-30T13:53:49.710Z,24.42
2022-10-30T13:56:19.097Z,24.32
2022-10-30T13:59:00.249Z,24.24
2022-10-30T14:01:48.416Z,24.36
2022-10-30T14:04:25.166Z,24.21
2022-10-30T14:07:16.006Z,24.11
2022-10-30T14:09:58.427Z,24.01
2022-10-30T14:13:08.957Z,23.73
2022-10-30T14:15:46.815Z,23.30
2022-10-30T14:18:13.600Z,22.99
2022-10-30T14:20:48.569Z,22.51
2022-10-30T14:23:30.441Z,22.18
2022-10-30T14:26:03.550Z,21.91
2022-10-30T14:28:36.013Z,21.73
2022-10-30T14:31:10.271Z,21.56
2022-10-30T14:33:40.060Z,21.35
2022-10-30T14:36:12.978Z,21.21
2022-10-30T14:38:41.017Z,21.02
2022-10-30T14:41:26.360Z,20.89
2022-10-30T14:44:04.300Z,20.75
2022-10-30T14:46:43.335Z,20.60
2022-10-30T14:49:37.865Z,20.44
2022-10-30T14:52:24.964Z,20.34
2022-10-30T14:55:17.223Z,20.27
2022-10-30T14:57:51.976Z,20.15
2022-10-30T15:00:24.886Z,20.04
2022-10-30T15:02:57.757Z,19.98
2022-10-30T15:05:46.728Z,19.88
2022-10-30T15:08:47.598Z,19.82
2022-10-30T15:11:39.154Z,19.77
2022-10-30T15:14:21.708Z,19.69
2022-10-30T15:16:59.886Z,19.61
2022-10-30T15:19:29.544Z,19.52
2022-10-30T15:21:57.244Z,19.50
2022-10-30T15:24:32.095Z,19.42
2022-10-30T15:27:01.741Z,19.37
2022-10-30T15:29:34.123Z,19.34
2022-10-30T15:32:16.365Z,19.28
2022-10-30T15:35:04.375Z,19.22
2022-10-30T15:37:32.170Z,19.18
2022-10-30T15:40:20.006Z,19.13
2022-10-30T15:42:49.284Z,19.08
2022-10-30T15:45:18.894Z,19.04
2022-10-30T15:47:49.275Z,19.00
2022-10-30T15:50:17.396Z,18.87
2022-10-30T15:52:44.223Z,18.88
2022-10-30T15:55:16.594Z,18.83
2022-10-30T15:58:03.036Z,18.77
2022-10-30T16:00:35.795Z,18.72
2022-10-30T16:03:18.157Z,18.65
2022-10-30T16:05:45.108Z,18.54
2022-10-30T16:08:24.081Z,18.52
2022-10-30T16:10:55.289Z,18.47
2022-10-30T16:13:28.933Z,18.40
2022-10-30T16:15:56.093Z,18.34
2022-10-30T16:18:31.082Z,18.26
2022-10-30T16:21:06.324Z,18.21
2022-10-30T16:23:42.722Z,18.14
2022-10-30T16:26:25.030Z,18.06
2022-10-30T16:28:52.263Z,17.97
2022-10-30T16:31:20.461Z,17.95
2022-10-30T16:33:49.446Z,17.90
2022-10-30T16:36:17.449Z,17.88
2022-10-30T16:38:49.384Z,17.84
2022-10-30T16:41:21.383Z,17.77
2022-10-30T16:44:12.872Z,17.75
2022-10-30T16:46:54.890Z,17.72
2022-10-30T16:49:26.197Z,17.69
2022-10-30T16:52:21.929Z,17.65
2022-10-30T16:54:58.478Z,17.63
2022-10-30T16:57:45.666Z,17.49
2022-10-30T17:00:41.825Z,17.53
2022-10-30T17:03:11.780Z,17.47
2022-10-30T17:05:40.525Z,17.41
2022-10-30T17:08:29.739Z,17.39
2022-10-30T17:11:00.054Z,17.35
2022-10-30T17:13:39.049Z,17.31
2022-10-30T17:16:24.877Z,17.28
2022-10-30T17:18:54.171Z,17.21
2022-10-30T17:21:39.485Z,17.11
2022-10-30T17:24:19.285Z,17.16
2022-10-30T17:26:55.200Z,17.13
2022-10-30T17:29:51.407Z,17.08
2022-10-30T17:32:23.593Z,17.00
2022-10-30T17:35:03.018Z,16.92
2022-10-30T17:37:29.894Z,16.95
2022-10-30T17:39:56.888Z,16.91
2022-10-30T17:42:23.841Z,16.83
2022-10-30T17:44:50.656Z,16.87
2022-10-30T17:47:19.951Z,16.79
2022-10-30T17:49:47.336Z,16.73
2022-10-30T17:52:16.789Z,16.69
2022-10-30T17:54:44.298Z,16.66
2022-10-30T17:57:12.349Z,16.67
2022-10-30T17:59:40.252Z,16.60
2022-10-30T18:02:15.517Z,16.59
2022-10-30T18:04:43.543Z,16.56
2022-10-30T18:07:11.154Z,16.46
2022-10-30T18:09:38.783Z,16.48
2022-10-30T18:12:11.227Z,16.44
2022-10-30T18:14:38.166Z,16.41
2022-10-30T18:17:05.000Z,16.38
2022-10-30T18:19:31.952Z,16.33
2022-10-30T18:21:58.778Z,16.26
2022-10-30T18:24:25.677Z,16.24
2022-10-30T18:26:54.056Z,16.23
2022-10-30T18:29:21.218Z,16.17
2022-10-30T18:31:48.331Z,16.13
2022-10-30T18:34:18.466Z,16.06
2022-10-30T18:36:45.935Z,16.03
2022-10-30T18:39:13.157Z,15.99
2022-10-30T18:41:45.339Z,15.94
2022-10-30T18:44:16.199Z,15.92
2022-10-30T18:46:43.595Z,15.85
2022-10-30T18:49:11.229Z,15.91
2022-10-30T18:51:39.275Z,15.92
2022-10-30T18:54:14.053Z,15.90
2022-10-30T18:56:41.116Z,15.89
2022-10-30T18:59:07.980Z,15.89
2022-10-30T19:01:35.458Z,15.85
2022-10-30T19:04:03.956Z,15.88
2022-10-30T19:06:32.970Z,15.86
2022-10-30T19:08:59.863Z,15.85
2022-10-30T19:11:28.253Z,15.81
2022-10-30T19:13:57.228Z,15.68
2022-10-30T19:16:25.604Z,15.72
2022-10-30T19:18:53.150Z,15.75
2022-10-30T19:21:23.205Z,15.76
2022-10-30T19:23:50.130Z,15.78
2022-10-30T19:26:17.778Z,15.80
2022-10-30T19:28:45.970Z,15.78
2022-10-30T19:31:17.541Z,15.86
2022-10-30T19:33:45.159Z,15.90
2022-10-30T19:36:29.372Z,15.91
2022-10-30T19:38:56.743Z,15.89
2022-10-30T19:41:25.112Z,15.87
2022-10-30T19:43:53.531Z,15.91
2022-10-30T19:46:20.850Z,15.91
2022-10-30T19:49:02.856Z,15.84
2022-10-30T19:51:29.678Z,15.83
2022-10-30T19:53:56.580Z,15.82
2022-10-30T19:56:23.410Z,15.76
2022-10-30T19:58:51.493Z,15.71
2022-10-30T20:01:18.658Z,15.66
2022-10-30T20:03:45.678Z,15.62
2022-10-30T20:06:13.573Z,15.54
2022-10-30T20:08:41.297Z,15.52
2022-10-30T20:11:08.305Z,15.49
2022-10-30T20:13:37.407Z,15.47
2022-10-30T20:16:05.649Z,15.40
2022-10-30T20:18:34.818Z,15.37
2022-10-30T20:21:09.744Z,15.32
2022-10-30T20:23:37.251Z,15.32
2022-10-30T20:26:24.341Z,15.24
2022-10-30T20:28:51.901Z,15.13
2022-10-30T20:31:19.156Z,15.12
2022-10-30T20:33:45.915Z,15.08
2022-10-30T20:36:15.576Z,15.05
2022-10-30T20:38:42.610Z,15.05
2022-10-30T20:41:20.150Z,15.05
2022-10-30T20:43:46.973Z,15.03
2022-10-30T20:46:13.797Z,15.03
2022-10-30T20:48:40.548Z,15.00
2022-10-30T20:51:08.000Z,15.00
2022-10-30T20:53:34.816Z,14.95
2022-10-30T20:56:01.584Z,14.95
2022-10-30T20:58:28.714Z,14.94
2022-10-30T21:00:58.440Z,14.89
2022-10-30T21:03:26.479Z,14.85
2022-10-30T21:05:58.619Z,14.86
2022-10-30T21:08:26.869Z,14.87
2022-10-30T21:10:57.733Z,14.83
2022-10-30T21:13:24.615Z,14.85
2022-10-30T21:15:51.596Z,14.84
2022-10-30T21:18:18.432Z,14.84
2022-10-30T21:20:45.338Z,14.81
2022-10-30T21:23:13.266Z,14.77
2022-10-30T21:25:40.093Z,14.79
2022-10-30T21:28:06.912Z,14.75
2022-10-30T21:30:33.802Z,14.77
2022-10-30T21:33:00.812Z,14.71
2022-10-30T21:35:29.388Z,14.71
2022-10-30T21:37:56.196Z,14.71
2022-10-30T21:40:24.024Z,14.71
2022-10-30T21:42:51.918Z,14.68
2022-10-30T21:45:18.805Z,14.67
2022-10-30T21:47:45.612Z,14.66
2022-10-30T21:50:13.024Z,14.66
2022-10-30T21:52:40.849Z,14.66
2022-10-30T21:55:09.137Z,14.64
2022-10-30T21:57:36.469Z,14.63
2022-10-30T22:00:05.694Z,14.64
2022-10-30T22:02:35.677Z,14.60
2022-10-30T22:05:02.495Z,14.61
2022-10-30T22:07:29.703Z,14.55
2022-10-30T22:09:56.573Z,14.50
2022-10-30T22:12:23.383Z,14.53
2022-10-30T22:14:51.449Z,14.47
2022-10-30T22:17:18.506Z,14.44
2022-10-30T22:19:45.262Z,14.41
2022-10-30T22:22:12.093Z,14.30
2022-10-30T22:24:38.877Z,14.26
2022-10-30T22:27:05.772Z,14.25
2022-10-30T22:29:32.623Z,14.09
2022-10-30T22:31:59.444Z,14.00
2022-10-30T22:34:26.310Z,13.91
2022-10-30T22:36:53.193Z,13.78
2022-10-30T22:39:20.039Z,13.77
2022-10-30T22:41:46.885Z,13.69
2022-10-30T22:44:17.552Z,13.58
2022-10-30T22:46:44.809Z,13.49
2022-10-30T22:49:12.535Z,13.40
2022-10-30T22:51:39.896Z,13.42
2022-10-30T22:54:12.296Z,13.45
2022-10-30T22:56:40.596Z,13.43
2022-10-30T22:59:11.654Z,13.46
2022-10-30T23:01:39.503Z,13.46
2022-10-30T23:04:07.429Z,13.43
2022-10-30T23:06:36.267Z,13.44
2022-10-30T23:09:06.153Z,13.44
2022-10-30T23:11:33.423Z,13.42
2022-10-30T23:14:03.397Z,13.44
2022-10-30T23:16:31.334Z,13.43
2022-10-30T23:19:00.411Z,13.42
2022-10-30T23:21:29.785Z,13.45
2022-10-30T23:23:56.854Z,13.43
2022-10-30T23:26:27.514Z,13.40
2022-10-30T23:28:55.930Z,13.38
2022-10-30T23:31:32.471Z,13.37
2022-10-30T23:34:02.303Z,13.36
2022-10-30T23:36:29.406Z,13.35
2022-10-30T23:39:04.947Z,13.34
2022-10-30T23:41:34.554Z,13.33
2022-10-30T23:44:11.308Z,13.34
2022-10-30T23:46:38.194Z,13.34
2022-10-30T23:49:05.279Z,13.33
2022-10-30T23:51:32.607Z,13.24
2022-10-30T23:53:59.630Z,13.22
2022-10-30T23:56:28.275Z,13.21
2022-10-30T23:58:55.624Z,13.20
